This is the latest recevied weather packets stored in our database for station/object IK2ILW-4. If no packets are shown the sender has not sent any weather packets the latest 10 day(s).
| Time | Temp. | Humidity | Pressure | Rain* | Wind** | Luminosity | Snow |
|---|---|---|---|---|---|---|---|
| 1787880168 | 18.89° C | 82% | 1023.1 hPa | 0 mm | - | 0 W/m² | - |
| 1787879873 | 18.33° C | 82% | 1023.1 hPa | 0 mm | - | 0 W/m² | - |
| 1787879559 | 18.89° C | 82% | 1023.2 hPa | 0 mm | - | 0 W/m² | - |
| 1787879256 | 18.89° C | 81% | 1023.2 hPa | 0 mm | - | 0 W/m² | - |
| 1787878963 | 18.33° C | 81% | 1023.2 hPa | 0 mm | - | 0 W/m² | - |
| 1787874758 | 19.44° C | 79% | 1024.3 hPa | 0 mm | - | 0 W/m² | - |
| 1787874472 | 19.44° C | 79% | 1024.3 hPa | 0 mm | - | 0 W/m² | - |
| 1787874165 | 19.44° C | 79% | 1024.4 hPa | 0 mm | - | 0 W/m² | - |
| 1787873860 | 19.44° C | 80% | 1024.4 hPa | 0 mm | - | 0 W/m² | - |
| 1787873571 | 19.44° C | 79% | 1024.4 hPa | 0 mm | - | 0 W/m² | - |
| 1787873265 | 19.44° C | 76% | 1024.5 hPa | 0 mm | - | 0 W/m² | - |
| 1787872962 | 20° C | 75% | 1024.5 hPa | 0 mm | - | 0 W/m² | - |
| 1787872669 | 20° C | 75% | 1024.5 hPa | 0 mm | - | 0 W/m² | - |
| 1787872363 | 20° C | 75% | 1024.7 hPa | 0 mm | - | 0 W/m² | - |
| 1787872063 | 20° C | 75% | 1024.7 hPa | 0 mm | - | 0 W/m² | - |
| 1787871771 | 19.44° C | 75% | 1024.7 hPa | 0 mm | - | 0 W/m² | - |
| 1787871465 | 19.44° C | 75% | 1024.7 hPa | 0 mm | - | 0 W/m² | - |
| 1787871162 | 19.44° C | 76% | 1024.7 hPa | 0 mm | - | 0 W/m² | - |
| 1787870869 | 19.44° C | 77% | 1024.7 hPa | 0 mm | - | 0 W/m² | - |
| 1787870567 | 19.44° C | 77% | 1024.7 hPa | 0 mm | - | 0 W/m² | - |
| 1787870255 | 19.44° C | 77% | 1024.7 hPa | 0 mm | - | 0 W/m² | - |
| 1787869952 | 19.44° C | 76% | 1024.7 hPa | 0 mm | - | 0 W/m² | - |
| 1787869671 | 20° C | 76% | 1024.7 hPa | 0 mm | - | 0 W/m² | - |
| 1787869369 | 20° C | 75% | 1024.7 hPa | 0 mm | - | 0 W/m² | - |
| 1787869055 | 20° C | 75% | 1024.7 hPa | 0 mm | - | 0 W/m² | - |
* Rain since midnight (hover to see other rain measurements)
** Current wind speed in m/s (hover to see current wind gust speed)